sensor_id;sensor_type;location;lat;lon;timestamp;temperature;humidity
34099;DHT22;20374;49.474;10.944;2022-11-20T00:01:06;0.30;99.90
34099;DHT22;20374;49.474;10.944;2022-11-20T00:03:32;0.30;99.90
34099;DHT22;20374;49.474;10.944;2022-11-20T00:06:07;0.30;99.90
34099;DHT22;20374;49.474;10.944;2022-11-20T00:08:33;0.30;99.90
34099;DHT22;20374;49.474;10.944;2022-11-20T00:11:11;0.30;99.90
34099;DHT22;20374;49.474;10.944;2022-11-20T00:13:37;0.30;99.90
34099;DHT22;20374;49.474;10.944;2022-11-20T00:16:05;0.30;99.90
34099;DHT22;20374;49.474;10.944;2022-11-20T00:18:32;0.30;99.90
34099;DHT22;20374;49.474;10.944;2022-11-20T00:21:07;0.30;99.90
34099;DHT22;20374;49.474;10.944;2022-11-20T00:23:33;0.30;99.90
34099;DHT22;20374;49.474;10.944;2022-11-20T00:26:04;0.30;99.90
34099;DHT22;20374;49.474;10.944;2022-11-20T00:28:30;0.30;99.90
34099;DHT22;20374;49.474;10.944;2022-11-20T00:31:06;0.30;99.90
34099;DHT22;20374;49.474;10.944;2022-11-20T00:33:32;0.30;99.90
34099;DHT22;20374;49.474;10.944;2022-11-20T00:36:00;0.30;99.90
34099;DHT22;20374;49.474;10.944;2022-11-20T00:38:27;0.30;99.90
34099;DHT22;20374;49.474;10.944;2022-11-20T00:40:57;0.30;99.90
34099;DHT22;20374;49.474;10.944;2022-11-20T00:43:24;0.30;99.90
34099;DHT22;20374;49.474;10.944;2022-11-20T00:45:50;0.30;99.90
34099;DHT22;20374;49.474;10.944;2022-11-20T00:48:16;0.30;99.90
34099;DHT22;20374;49.474;10.944;2022-11-20T00:50:42;0.30;99.90
34099;DHT22;20374;49.474;10.944;2022-11-20T00:53:08;0.30;99.90
34099;DHT22;20374;49.474;10.944;2022-11-20T00:55:34;0.30;99.90
34099;DHT22;20374;49.474;10.944;2022-11-20T00:58:05;0.30;99.90
34099;DHT22;20374;49.474;10.944;2022-11-20T01:00:31;0.30;99.90
34099;DHT22;20374;49.474;10.944;2022-11-20T01:03:01;0.30;99.90
34099;DHT22;20374;49.474;10.944;2022-11-20T01:05:27;0.30;99.90
34099;DHT22;20374;49.474;10.944;2022-11-20T01:07:53;0.20;99.90
34099;DHT22;20374;49.474;10.944;2022-11-20T01:10:20;0.30;99.90
34099;DHT22;20374;49.474;10.944;2022-11-20T01:12:47;0.30;99.90
34099;DHT22;20374;49.474;10.944;2022-11-20T01:15:36;0.30;99.90
34099;DHT22;20374;49.474;10.944;2022-11-20T01:18:03;0.30;99.90
34099;DHT22;20374;49.474;10.944;2022-11-20T01:20:29;0.30;99.90
34099;DHT22;20374;49.474;10.944;2022-11-20T01:22:55;0.30;99.90
34099;DHT22;20374;49.474;10.944;2022-11-20T01:25:21;0.30;99.90
34099;DHT22;20374;49.474;10.944;2022-11-20T01:27:47;0.40;99.90
34099;DHT22;20374;49.474;10.944;2022-11-20T01:30:13;0.40;99.90
34099;DHT22;20374;49.474;10.944;2022-11-20T01:32:38;0.40;99.90
34099;DHT22;20374;49.474;10.944;2022-11-20T01:35:05;0.40;99.90
34099;DHT22;20374;49.474;10.944;2022-11-20T01:37:31;0.40;99.90
34099;DHT22;20374;49.474;10.944;2022-11-20T01:40:01;0.40;99.90
34099;DHT22;20374;49.474;10.944;2022-11-20T01:42:31;0.40;99.90
34099;DHT22;20374;49.474;10.944;2022-11-20T01:48:12;0.40;99.90
34099;DHT22;20374;49.474;10.944;2022-11-20T01:50:40;0.40;99.90
34099;DHT22;20374;49.474;10.944;2022-11-20T01:53:09;0.40;99.90
34099;DHT22;20374;49.474;10.944;2022-11-20T01:55:44;0.40;99.90
34099;DHT22;20374;49.474;10.944;2022-11-20T01:58:11;0.40;99.90
34099;DHT22;20374;49.474;10.944;2022-11-20T02:00:38;0.40;99.90
34099;DHT22;20374;49.474;10.944;2022-11-20T02:03:08;0.40;99.90
34099;DHT22;20374;49.474;10.944;2022-11-20T02:08:15;0.40;99.90
34099;DHT22;20374;49.474;10.944;2022-11-20T02:10:43;0.40;99.90
34099;DHT22;20374;49.474;10.944;2022-11-20T02:13:09;0.40;99.90
34099;DHT22;20374;49.474;10.944;2022-11-20T02:15:53;0.40;99.90
34099;DHT22;20374;49.474;10.944;2022-11-20T02:18:21;0.40;99.90
34099;DHT22;20374;49.474;10.944;2022-11-20T02:20:49;0.40;99.90
34099;DHT22;20374;49.474;10.944;2022-11-20T02:23:39;0.40;99.90
34099;DHT22;20374;49.474;10.944;2022-11-20T02:26:11;0.40;99.90
34099;DHT22;20374;49.474;10.944;2022-11-20T02:28:38;0.40;99.90
34099;DHT22;20374;49.474;10.944;2022-11-20T02:31:05;0.40;99.90
34099;DHT22;20374;49.474;10.944;2022-11-20T02:33:31;0.40;99.90
34099;DHT22;20374;49.474;10.944;2022-11-20T02:35:57;0.40;99.90
34099;DHT22;20374;49.474;10.944;2022-11-20T02:38:22;0.40;99.90
34099;DHT22;20374;49.474;10.944;2022-11-20T02:40:48;0.40;99.90
34099;DHT22;20374;49.474;10.944;2022-11-20T02:43:15;0.40;99.90
34099;DHT22;20374;49.474;10.944;2022-11-20T02:45:41;0.40;99.90
34099;DHT22;20374;49.474;10.944;2022-11-20T02:48:07;0.50;99.90
34099;DHT22;20374;49.474;10.944;2022-11-20T02:50:37;0.40;99.90
34099;DHT22;20374;49.474;10.944;2022-11-20T02:53:03;0.40;99.90
34099;DHT22;20374;49.474;10.944;2022-11-20T02:55:29;0.40;99.90
34099;DHT22;20374;49.474;10.944;2022-11-20T02:57:56;0.40;99.90
34099;DHT22;20374;49.474;10.944;2022-11-20T03:00:21;0.40;99.90
34099;DHT22;20374;49.474;10.944;2022-11-20T03:02:47;0.50;99.90
34099;DHT22;20374;49.474;10.944;2022-11-20T03:05:13;0.50;99.90
34099;DHT22;20374;49.474;10.944;2022-11-20T03:07:39;0.50;99.90
34099;DHT22;20374;49.474;10.944;2022-11-20T03:10:06;0.60;99.90
34099;DHT22;20374;49.474;10.944;2022-11-20T03:12:32;0.60;99.90
34099;DHT22;20374;49.474;10.944;2022-11-20T03:14:58;0.40;99.90
34099;DHT22;20374;49.474;10.944;2022-11-20T03:17:25;0.40;99.90
34099;DHT22;20374;49.474;10.944;2022-11-20T03:19:51;0.40;99.90
34099;DHT22;20374;49.474;10.944;2022-11-20T03:22:16;0.40;99.90
34099;DHT22;20374;49.474;10.944;2022-11-20T03:24:42;0.40;99.90
34099;DHT22;20374;49.474;10.944;2022-11-20T03:27:08;0.40;99.90
34099;DHT22;20374;49.474;10.944;2022-11-20T03:29:37;0.40;99.90
34099;DHT22;20374;49.474;10.944;2022-11-20T03:32:03;0.40;99.90
34099;DHT22;20374;49.474;10.944;2022-11-20T03:34:29;0.40;99.90
34099;DHT22;20374;49.474;10.944;2022-11-20T03:36:55;0.40;99.90
34099;DHT22;20374;49.474;10.944;2022-11-20T03:39:21;0.40;99.90
34099;DHT22;20374;49.474;10.944;2022-11-20T03:41:47;0.30;99.90
34099;DHT22;20374;49.474;10.944;2022-11-20T03:44:12;0.40;99.90
34099;DHT22;20374;49.474;10.944;2022-11-20T03:46:39;0.40;99.90
34099;DHT22;20374;49.474;10.944;2022-11-20T03:49:05;0.30;99.90
34099;DHT22;20374;49.474;10.944;2022-11-20T03:51:33;0.30;99.90
34099;DHT22;20374;49.474;10.944;2022-11-20T03:54:04;0.30;99.90
34099;DHT22;20374;49.474;10.944;2022-11-20T03:56:33;0.30;99.90
34099;DHT22;20374;49.474;10.944;2022-11-20T03:59:00;0.30;99.90
34099;DHT22;20374;49.474;10.944;2022-11-20T04:01:28;0.30;99.90
34099;DHT22;20374;49.474;10.944;2022-11-20T04:03:56;0.30;99.90
34099;DHT22;20374;49.474;10.944;2022-11-20T04:06:32;0.30;99.90
34099;DHT22;20374;49.474;10.944;2022-11-20T04:08:58;0.30;99.90
34099;DHT22;20374;49.474;10.944;2022-11-20T04:11:29;0.30;99.90
34099;DHT22;20374;49.474;10.944;2022-11-20T04:13:58;0.30;99.90
34099;DHT22;20374;49.474;10.944;2022-11-20T04:16:26;0.30;99.90
34099;DHT22;20374;49.474;10.944;2022-11-20T04:18:56;0.30;99.90
34099;DHT22;20374;49.474;10.944;2022-11-20T04:21:23;0.30;99.90
34099;DHT22;20374;49.474;10.944;2022-11-20T04:23:50;0.30;99.90
34099;DHT22;20374;49.474;10.944;2022-11-20T04:26:17;0.30;99.90
34099;DHT22;20374;49.474;10.944;2022-11-20T04:28:43;0.30;99.90
34099;DHT22;20374;49.474;10.944;2022-11-20T04:31:11;0.30;99.90
34099;DHT22;20374;49.474;10.944;2022-11-20T04:33:38;0.30;99.90
34099;DHT22;20374;49.474;10.944;2022-11-20T04:36:07;0.30;99.90
34099;DHT22;20374;49.474;10.944;2022-11-20T04:38:33;0.30;99.90
34099;DHT22;20374;49.474;10.944;2022-11-20T04:41:01;0.40;99.90
34099;DHT22;20374;49.474;10.944;2022-11-20T04:43:28;0.40;99.90
34099;DHT22;20374;49.474;10.944;2022-11-20T04:45:55;0.40;99.90
34099;DHT22;20374;49.474;10.944;2022-11-20T04:48:23;0.40;99.90
34099;DHT22;20374;49.474;10.944;2022-11-20T04:50:49;0.40;99.90
34099;DHT22;20374;49.474;10.944;2022-11-20T04:53:15;0.40;99.90
34099;DHT22;20374;49.474;10.944;2022-11-20T04:55:42;0.40;99.90
34099;DHT22;20374;49.474;10.944;2022-11-20T04:58:08;0.30;99.90
34099;DHT22;20374;49.474;10.944;2022-11-20T05:00:34;0.40;99.90
34099;DHT22;20374;49.474;10.944;2022-11-20T05:02:59;0.50;99.90
34099;DHT22;20374;49.474;10.944;2022-11-20T05:05:25;0.40;99.90
34099;DHT22;20374;49.474;10.944;2022-11-20T05:07:51;0.40;99.90
34099;DHT22;20374;49.474;10.944;2022-11-20T05:10:17;0.40;99.90
34099;DHT22;20374;49.474;10.944;2022-11-20T05:12:43;0.40;99.90
34099;DHT22;20374;49.474;10.944;2022-11-20T05:15:09;0.40;99.90
34099;DHT22;20374;49.474;10.944;2022-11-20T05:17:35;0.50;99.90
34099;DHT22;20374;49.474;10.944;2022-11-20T05:20:01;0.40;99.90
34099;DHT22;20374;49.474;10.944;2022-11-20T05:22:27;0.40;99.90
34099;DHT22;20374;49.474;10.944;2022-11-20T05:24:53;0.40;99.90
34099;DHT22;20374;49.474;10.944;2022-11-20T05:27:19;0.50;99.90
34099;DHT22;20374;49.474;10.944;2022-11-20T05:29:45;0.50;99.90
34099;DHT22;20374;49.474;10.944;2022-11-20T05:32:10;0.50;99.90
34099;DHT22;20374;49.474;10.944;2022-11-20T05:34:36;0.40;99.90
34099;DHT22;20374;49.474;10.944;2022-11-20T05:37:02;0.40;99.90
34099;DHT22;20374;49.474;10.944;2022-11-20T05:39:28;0.40;99.90
34099;DHT22;20374;49.474;10.944;2022-11-20T05:41:54;0.40;99.90
34099;DHT22;20374;49.474;10.944;2022-11-20T05:44:39;0.40;99.90
34099;DHT22;20374;49.474;10.944;2022-11-20T05:47:05;0.40;99.90
34099;DHT22;20374;49.474;10.944;2022-11-20T05:49:31;0.50;99.90
34099;DHT22;20374;49.474;10.944;2022-11-20T05:51:57;0.50;99.90
34099;DHT22;20374;49.474;10.944;2022-11-20T05:54:23;0.40;99.90
34099;DHT22;20374;49.474;10.944;2022-11-20T05:56:49;0.40;99.90
34099;DHT22;20374;49.474;10.944;2022-11-20T05:59:15;0.50;99.90
34099;DHT22;20374;49.474;10.944;2022-11-20T06:01:41;0.50;99.90
34099;DHT22;20374;49.474;10.944;2022-11-20T06:04:07;0.50;99.90
34099;DHT22;20374;49.474;10.944;2022-11-20T06:06:33;0.50;99.90
34099;DHT22;20374;49.474;10.944;2022-11-20T06:08:59;0.50;99.90
34099;DHT22;20374;49.474;10.944;2022-11-20T06:11:25;0.50;99.90
34099;DHT22;20374;49.474;10.944;2022-11-20T06:13:51;0.50;99.90
34099;DHT22;20374;49.474;10.944;2022-11-20T06:16:19;0.50;99.90
34099;DHT22;20374;49.474;10.944;2022-11-20T06:18:47;0.40;99.90
34099;DHT22;20374;49.474;10.944;2022-11-20T06:21:16;0.50;99.90
34099;DHT22;20374;49.474;10.944;2022-11-20T06:23:42;0.40;99.90
34099;DHT22;20374;49.474;10.944;2022-11-20T06:26:10;0.40;99.90
34099;DHT22;20374;49.474;10.944;2022-11-20T06:28:37;0.50;99.90
34099;DHT22;20374;49.474;10.944;2022-11-20T06:31:04;0.40;99.90
34099;DHT22;20374;49.474;10.944;2022-11-20T06:33:31;0.50;99.90
34099;DHT22;20374;49.474;10.944;2022-11-20T06:35:58;0.50;99.90
34099;DHT22;20374;49.474;10.944;2022-11-20T06:38:25;0.40;99.90
34099;DHT22;20374;49.474;10.944;2022-11-20T06:40:51;0.50;99.90
34099;DHT22;20374;49.474;10.944;2022-11-20T06:43:17;0.50;99.90
34099;DHT22;20374;49.474;10.944;2022-11-20T06:45:43;0.50;99.90
34099;DHT22;20374;49.474;10.944;2022-11-20T06:48:09;0.50;99.90
34099;DHT22;20374;49.474;10.944;2022-11-20T06:50:36;0.40;99.90
34099;DHT22;20374;49.474;10.944;2022-11-20T06:53:03;0.50;99.90
34099;DHT22;20374;49.474;10.944;2022-11-20T06:55:30;0.50;99.90
34099;DHT22;20374;49.474;10.944;2022-11-20T06:57:57;0.50;99.90
34099;DHT22;20374;49.474;10.944;2022-11-20T07:00:23;0.50;99.90
34099;DHT22;20374;49.474;10.944;2022-11-20T07:02:50;0.50;99.90
34099;DHT22;20374;49.474;10.944;2022-11-20T07:05:17;0.50;99.90
34099;DHT22;20374;49.474;10.944;2022-11-20T07:07:44;0.60;99.90
34099;DHT22;20374;49.474;10.944;2022-11-20T07:10:10;0.60;99.90
34099;DHT22;20374;49.474;10.944;2022-11-20T07:12:36;0.60;99.90
34099;DHT22;20374;49.474;10.944;2022-11-20T07:15:03;0.60;99.90
34099;DHT22;20374;49.474;10.944;2022-11-20T07:17:29;0.60;99.90
34099;DHT22;20374;49.474;10.944;2022-11-20T07:19:55;0.60;99.90
34099;DHT22;20374;49.474;10.944;2022-11-20T07:22:20;0.50;99.90
34099;DHT22;20374;49.474;10.944;2022-11-20T07:24:47;0.50;99.90
34099;DHT22;20374;49.474;10.944;2022-11-20T07:27:13;0.60;99.90
34099;DHT22;20374;49.474;10.944;2022-11-20T07:29:39;0.60;99.90
34099;DHT22;20374;49.474;10.944;2022-11-20T07:32:05;0.60;99.90
34099;DHT22;20374;49.474;10.944;2022-11-20T07:34:31;0.60;99.90
34099;DHT22;20374;49.474;10.944;2022-11-20T07:36:57;0.60;99.90
34099;DHT22;20374;49.474;10.944;2022-11-20T07:39:24;0.60;99.90
34099;DHT22;20374;49.474;10.944;2022-11-20T07:41:49;0.60;99.90
34099;DHT22;20374;49.474;10.944;2022-11-20T07:44:15;0.60;99.90
34099;DHT22;20374;49.474;10.944;2022-11-20T07:46:41;0.70;99.90
34099;DHT22;20374;49.474;10.944;2022-11-20T07:49:07;0.70;99.90
34099;DHT22;20374;49.474;10.944;2022-11-20T07:51:33;0.70;99.90
34099;DHT22;20374;49.474;10.944;2022-11-20T07:54:00;0.70;99.90
34099;DHT22;20374;49.474;10.944;2022-11-20T07:56:26;0.80;99.90
34099;DHT22;20374;49.474;10.944;2022-11-20T07:58:52;0.80;99.90
34099;DHT22;20374;49.474;10.944;2022-11-20T08:01:19;0.90;99.90
34099;DHT22;20374;49.474;10.944;2022-11-20T08:03:45;0.80;99.90
34099;DHT22;20374;49.474;10.944;2022-11-20T08:06:11;0.80;99.90
34099;DHT22;20374;49.474;10.944;2022-11-20T08:08:36;0.80;99.90
34099;DHT22;20374;49.474;10.944;2022-11-20T08:11:05;0.80;99.90
34099;DHT22;20374;49.474;10.944;2022-11-20T08:13:49;0.80;99.90
34099;DHT22;20374;49.474;10.944;2022-11-20T08:16:39;0.80;99.90
34099;DHT22;20374;49.474;10.944;2022-11-20T08:19:05;0.80;99.90
34099;DHT22;20374;49.474;10.944;2022-11-20T08:21:31;0.80;99.90
34099;DHT22;20374;49.474;10.944;2022-11-20T08:23:58;0.80;99.90
34099;DHT22;20374;49.474;10.944;2022-11-20T08:26:25;0.80;99.90
34099;DHT22;20374;49.474;10.944;2022-11-20T08:28:57;0.80;99.90
34099;DHT22;20374;49.474;10.944;2022-11-20T08:31:30;0.80;99.90
34099;DHT22;20374;49.474;10.944;2022-11-20T08:34:02;0.90;99.90
34099;DHT22;20374;49.474;10.944;2022-11-20T08:36:33;0.90;99.90
34099;DHT22;20374;49.474;10.944;2022-11-20T08:39:01;0.90;99.90
34099;DHT22;20374;49.474;10.944;2022-11-20T08:41:28;0.90;99.90
34099;DHT22;20374;49.474;10.944;2022-11-20T08:44:25;1.00;99.90
34099;DHT22;20374;49.474;10.944;2022-11-20T08:47:21;1.00;99.90
34099;DHT22;20374;49.474;10.944;2022-11-20T09:01:45;1.00;99.90
34099;DHT22;20374;49.474;10.944;2022-11-20T09:12:05;1.00;99.90
34099;DHT22;20374;49.474;10.944;2022-11-20T09:19:02;1.10;99.90
34099;DHT22;20374;49.474;10.944;2022-11-20T09:22:15;1.00;99.90
34099;DHT22;20374;49.474;10.944;2022-11-20T09:24:50;1.10;99.90
34099;DHT22;20374;49.474;10.944;2022-11-20T09:27:16;1.20;99.90
34099;DHT22;20374;49.474;10.944;2022-11-20T09:29:47;1.20;99.90
34099;DHT22;20374;49.474;10.944;2022-11-20T09:32:12;1.20;99.90
34099;DHT22;20374;49.474;10.944;2022-11-20T09:34:38;1.30;99.90
34099;DHT22;20374;49.474;10.944;2022-11-20T09:37:04;1.30;99.90
34099;DHT22;20374;49.474;10.944;2022-11-20T09:39:30;1.30;99.90
34099;DHT22;20374;49.474;10.944;2022-11-20T09:42:02;1.30;99.90
34099;DHT22;20374;49.474;10.944;2022-11-20T09:45:08;1.30;99.90
34099;DHT22;20374;49.474;10.944;2022-11-20T09:50:49;1.30;99.90
34099;DHT22;20374;49.474;10.944;2022-11-20T09:56:09;1.40;99.90
34099;DHT22;20374;49.474;10.944;2022-11-20T09:58:45;1.50;99.90
34099;DHT22;20374;49.474;10.944;2022-11-20T10:10:49;1.60;99.90
34099;DHT22;20374;49.474;10.944;2022-11-20T10:19:30;1.70;99.90
34099;DHT22;20374;49.474;10.944;2022-11-20T10:22:18;1.70;99.90
34099;DHT22;20374;49.474;10.944;2022-11-20T10:25:16;1.70;99.90
34099;DHT22;20374;49.474;10.944;2022-11-20T10:30:40;1.70;99.90
34099;DHT22;20374;49.474;10.944;2022-11-20T10:33:22;1.80;99.90
34099;DHT22;20374;49.474;10.944;2022-11-20T10:38:39;1.90;99.90
34099;DHT22;20374;49.474;10.944;2022-11-20T10:41:06;1.90;99.90
34099;DHT22;20374;49.474;10.944;2022-11-20T10:46:44;1.90;99.90
34099;DHT22;20374;49.474;10.944;2022-11-20T10:49:16;1.90;99.90
34099;DHT22;20374;49.474;10.944;2022-11-20T10:52:09;1.90;99.90
34099;DHT22;20374;49.474;10.944;2022-11-20T10:54:50;1.90;99.90
34099;DHT22;20374;49.474;10.944;2022-11-20T11:00:13;2.00;99.90
34099;DHT22;20374;49.474;10.944;2022-11-20T11:02:49;2.10;99.90
34099;DHT22;20374;49.474;10.944;2022-11-20T11:05:44;2.10;99.90
34099;DHT22;20374;49.474;10.944;2022-11-20T11:08:14;2.20;99.90
34099;DHT22;20374;49.474;10.944;2022-11-20T11:10:47;2.20;99.90
34099;DHT22;20374;49.474;10.944;2022-11-20T11:13:25;2.20;99.90
34099;DHT22;20374;49.474;10.944;2022-11-20T11:15:52;2.20;99.90
34099;DHT22;20374;49.474;10.944;2022-11-20T11:18:34;2.10;99.90
34099;DHT22;20374;49.474;10.944;2022-11-20T11:21:08;2.00;99.90
34099;DHT22;20374;49.474;10.944;2022-11-20T11:23:42;1.90;99.90
34099;DHT22;20374;49.474;10.944;2022-11-20T11:26:23;1.80;99.90
34099;DHT22;20374;49.474;10.944;2022-11-20T11:29:05;1.80;99.90
34099;DHT22;20374;49.474;10.944;2022-11-20T11:31:45;1.90;99.90
34099;DHT22;20374;49.474;10.944;2022-11-20T11:34:17;1.90;99.90
34099;DHT22;20374;49.474;10.944;2022-11-20T11:36:55;2.00;99.90
34099;DHT22;20374;49.474;10.944;2022-11-20T11:39:23;2.10;99.90
34099;DHT22;20374;49.474;10.944;2022-11-20T11:41:52;2.10;99.90
34099;DHT22;20374;49.474;10.944;2022-11-20T11:44:24;2.20;99.90
34099;DHT22;20374;49.474;10.944;2022-11-20T11:47:23;2.20;99.90
34099;DHT22;20374;49.474;10.944;2022-11-20T11:53:02;2.20;99.90
34099;DHT22;20374;49.474;10.944;2022-11-20T12:00:58;2.30;99.90
34099;DHT22;20374;49.474;10.944;2022-11-20T12:03:34;2.30;99.90
34099;DHT22;20374;49.474;10.944;2022-11-20T12:06:13;2.60;99.90
34099;DHT22;20374;49.474;10.944;2022-11-20T12:11:43;2.70;99.90
34099;DHT22;20374;49.474;10.944;2022-11-20T12:14:40;2.70;99.90
34099;DHT22;20374;49.474;10.944;2022-11-20T12:17:11;2.60;99.90
34099;DHT22;20374;49.474;10.944;2022-11-20T12:19:37;2.60;99.90
34099;DHT22;20374;49.474;10.944;2022-11-20T12:22:22;2.50;99.90
34099;DHT22;20374;49.474;10.944;2022-11-20T12:25:00;2.40;99.90
34099;DHT22;20374;49.474;10.944;2022-11-20T12:30:17;2.30;99.90
34099;DHT22;20374;49.474;10.944;2022-11-20T12:43:43;2.60;99.90
34099;DHT22;20374;49.474;10.944;2022-11-20T12:46:50;2.60;99.90
34099;DHT22;20374;49.474;10.944;2022-11-20T12:55:08;2.60;99.90
34099;DHT22;20374;49.474;10.944;2022-11-20T12:57:45;2.60;99.90
34099;DHT22;20374;49.474;10.944;2022-11-20T13:05:47;2.50;99.90
34099;DHT22;20374;49.474;10.944;2022-11-20T13:08:34;2.60;99.90
34099;DHT22;20374;49.474;10.944;2022-11-20T13:19:04;2.50;99.90
34099;DHT22;20374;49.474;10.944;2022-11-20T13:21:42;2.50;99.90
34099;DHT22;20374;49.474;10.944;2022-11-20T13:24:29;2.50;99.90
34099;DHT22;20374;49.474;10.944;2022-11-20T13:32:54;2.50;99.90
34099;DHT22;20374;49.474;10.944;2022-11-20T13:35:33;2.50;99.90
34099;DHT22;20374;49.474;10.944;2022-11-20T13:38:03;2.70;99.90
34099;DHT22;20374;49.474;10.944;2022-11-20T13:40:29;2.60;99.90
34099;DHT22;20374;49.474;10.944;2022-11-20T13:43:08;2.60;99.90
34099;DHT22;20374;49.474;10.944;2022-11-20T13:45:36;2.60;99.90
34099;DHT22;20374;49.474;10.944;2022-11-20T13:48:05;2.60;99.90
34099;DHT22;20374;49.474;10.944;2022-11-20T13:56:31;2.60;99.90
34099;DHT22;20374;49.474;10.944;2022-11-20T13:59:08;2.60;99.90
34099;DHT22;20374;49.474;10.944;2022-11-20T14:01:38;2.60;99.90
34099;DHT22;20374;49.474;10.944;2022-11-20T14:04:08;2.60;99.90
34099;DHT22;20374;49.474;10.944;2022-11-20T14:06:41;2.60;99.90
34099;DHT22;20374;49.474;10.944;2022-11-20T14:09:27;2.60;99.90
34099;DHT22;20374;49.474;10.944;2022-11-20T14:11:53;2.60;99.90
34099;DHT22;20374;49.474;10.944;2022-11-20T14:14:21;2.60;99.90
34099;DHT22;20374;49.474;10.944;2022-11-20T14:16:49;2.60;99.90
34099;DHT22;20374;49.474;10.944;2022-11-20T14:21:53;2.70;99.90
34099;DHT22;20374;49.474;10.944;2022-11-20T14:24:22;2.70;99.90
34099;DHT22;20374;49.474;10.944;2022-11-20T14:26:49;2.70;99.90
34099;DHT22;20374;49.474;10.944;2022-11-20T14:29:18;2.70;99.90
34099;DHT22;20374;49.474;10.944;2022-11-20T14:31:45;2.70;99.90
34099;DHT22;20374;49.474;10.944;2022-11-20T14:34:18;2.70;99.90
34099;DHT22;20374;49.474;10.944;2022-11-20T14:36:45;2.60;99.90
34099;DHT22;20374;49.474;10.944;2022-11-20T14:39:21;2.60;99.90
34099;DHT22;20374;49.474;10.944;2022-11-20T14:41:51;2.60;99.90
34099;DHT22;20374;49.474;10.944;2022-11-20T14:44:21;2.60;99.90
34099;DHT22;20374;49.474;10.944;2022-11-20T14:46:49;2.60;99.90
34099;DHT22;20374;49.474;10.944;2022-11-20T14:49:16;2.60;99.90
34099;DHT22;20374;49.474;10.944;2022-11-20T14:51:42;2.60;99.90
34099;DHT22;20374;49.474;10.944;2022-11-20T14:54:14;2.70;99.90
34099;DHT22;20374;49.474;10.944;2022-11-20T14:56:40;2.70;99.90
34099;DHT22;20374;49.474;10.944;2022-11-20T14:59:08;2.70;99.90
34099;DHT22;20374;49.474;10.944;2022-11-20T15:01:34;2.70;99.90
34099;DHT22;20374;49.474;10.944;2022-11-20T15:04:09;2.70;99.90
34099;DHT22;20374;49.474;10.944;2022-11-20T15:06:36;2.70;99.90
34099;DHT22;20374;49.474;10.944;2022-11-20T15:11:57;2.70;99.90
34099;DHT22;20374;49.474;10.944;2022-11-20T15:14:24;2.70;99.90
34099;DHT22;20374;49.474;10.944;2022-11-20T15:16:51;2.70;99.90
34099;DHT22;20374;49.474;10.944;2022-11-20T15:19:25;2.70;99.90
34099;DHT22;20374;49.474;10.944;2022-11-20T15:21:52;2.60;99.90
34099;DHT22;20374;49.474;10.944;2022-11-20T15:24:19;2.60;99.90
34099;DHT22;20374;49.474;10.944;2022-11-20T15:26:45;2.70;99.90
34099;DHT22;20374;49.474;10.944;2022-11-20T15:29:13;2.70;99.90
34099;DHT22;20374;49.474;10.944;2022-11-20T15:31:40;2.70;99.90
34099;DHT22;20374;49.474;10.944;2022-11-20T15:34:14;2.80;99.90
34099;DHT22;20374;49.474;10.944;2022-11-20T15:36:41;2.70;99.90
34099;DHT22;20374;49.474;10.944;2022-11-20T15:39:08;2.70;99.90
34099;DHT22;20374;49.474;10.944;2022-11-20T15:41:35;2.70;99.90
34099;DHT22;20374;49.474;10.944;2022-11-20T15:44:02;2.70;99.90
34099;DHT22;20374;49.474;10.944;2022-11-20T15:46:29;2.70;99.90
34099;DHT22;20374;49.474;10.944;2022-11-20T15:48:57;2.70;99.90
34099;DHT22;20374;49.474;10.944;2022-11-20T15:53:55;2.70;99.90
34099;DHT22;20374;49.474;10.944;2022-11-20T15:56:22;2.80;99.90
34099;DHT22;20374;49.474;10.944;2022-11-20T15:58:48;2.70;99.90
34099;DHT22;20374;49.474;10.944;2022-11-20T16:01:16;2.80;99.90
34099;DHT22;20374;49.474;10.944;2022-11-20T16:03:43;2.80;99.90
34099;DHT22;20374;49.474;10.944;2022-11-20T16:06:09;2.80;99.90
34099;DHT22;20374;49.474;10.944;2022-11-20T16:08:35;2.80;99.90
34099;DHT22;20374;49.474;10.944;2022-11-20T16:11:01;2.80;99.90
34099;DHT22;20374;49.474;10.944;2022-11-20T16:13:27;2.70;99.90
34099;DHT22;20374;49.474;10.944;2022-11-20T16:16:26;2.70;99.90
34099;DHT22;20374;49.474;10.944;2022-11-20T16:18:56;2.70;99.90
34099;DHT22;20374;49.474;10.944;2022-11-20T16:21:22;2.70;99.90
34099;DHT22;20374;49.474;10.944;2022-11-20T16:24:02;2.70;99.90
34099;DHT22;20374;49.474;10.944;2022-11-20T16:26:29;2.70;99.90
34099;DHT22;20374;49.474;10.944;2022-11-20T16:28:55;2.70;99.90
34099;DHT22;20374;49.474;10.944;2022-11-20T16:31:21;2.70;99.90
34099;DHT22;20374;49.474;10.944;2022-11-20T16:33:52;2.70;99.90
34099;DHT22;20374;49.474;10.944;2022-11-20T16:36:19;2.60;99.90
34099;DHT22;20374;49.474;10.944;2022-11-20T16:38:45;2.60;99.90
34099;DHT22;20374;49.474;10.944;2022-11-20T16:41:11;2.60;99.90
34099;DHT22;20374;49.474;10.944;2022-11-20T16:43:48;2.60;99.90
34099;DHT22;20374;49.474;10.944;2022-11-20T16:46:18;2.60;99.90
34099;DHT22;20374;49.474;10.944;2022-11-20T16:48:44;2.50;99.90
34099;DHT22;20374;49.474;10.944;2022-11-20T16:51:12;2.60;99.90
34099;DHT22;20374;49.474;10.944;2022-11-20T16:53:41;2.60;99.90
34099;DHT22;20374;49.474;10.944;2022-11-20T16:56:18;2.50;99.90
34099;DHT22;20374;49.474;10.944;2022-11-20T16:58:47;2.60;99.90
34099;DHT22;20374;49.474;10.944;2022-11-20T17:01:18;2.70;99.90
34099;DHT22;20374;49.474;10.944;2022-11-20T17:03:52;2.60;99.90
34099;DHT22;20374;49.474;10.944;2022-11-20T17:06:22;2.60;99.90
34099;DHT22;20374;49.474;10.944;2022-11-20T17:08:48;2.60;99.90
34099;DHT22;20374;49.474;10.944;2022-11-20T17:11:16;2.60;99.90
34099;DHT22;20374;49.474;10.944;2022-11-20T17:13:43;2.60;99.90
34099;DHT22;20374;49.474;10.944;2022-11-20T17:16:18;2.60;99.90
34099;DHT22;20374;49.474;10.944;2022-11-20T17:18:44;2.60;99.90
34099;DHT22;20374;49.474;10.944;2022-11-20T17:21:11;2.60;99.90
34099;DHT22;20374;49.474;10.944;2022-11-20T17:23:42;2.70;99.90
34099;DHT22;20374;49.474;10.944;2022-11-20T17:26:13;2.60;99.90
34099;DHT22;20374;49.474;10.944;2022-11-20T17:28:40;2.40;99.90
34099;DHT22;20374;49.474;10.944;2022-11-20T17:31:12;2.40;99.90
34099;DHT22;20374;49.474;10.944;2022-11-20T17:33:40;2.40;99.90
34099;DHT22;20374;49.474;10.944;2022-11-20T17:36:07;2.30;99.90
34099;DHT22;20374;49.474;10.944;2022-11-20T17:38:34;2.20;99.90
34099;DHT22;20374;49.474;10.944;2022-11-20T17:41:08;2.20;99.90
34099;DHT22;20374;49.474;10.944;2022-11-20T17:43:34;2.20;99.90
34099;DHT22;20374;49.474;10.944;2022-11-20T17:46:14;2.20;99.90
34099;DHT22;20374;49.474;10.944;2022-11-20T17:48:41;2.20;99.90
34099;DHT22;20374;49.474;10.944;2022-11-20T17:51:11;2.20;99.90
34099;DHT22;20374;49.474;10.944;2022-11-20T17:53:39;2.10;99.90